Time;durP1;ratioP1;P1;durP2;ratioP2;P2;SDS_P1;SDS_P2;PMS_P1;PMS_P2;Temp;Humidity;BMP_temperature;BMP_pressure;BME280_temperature;BME280_humidity;BME280_pressure;Samples;Min_cycle;Max_cycle;Signal;HPM_P1;HPM_P2
2023/07/12 00:01:19;;;;;;;4.57;2.58;;;21.20;99.90;;;;;;4923795;29;20218;-87
2023/07/12 00:03:45;;;;;;;4.32;2.60;;;21.20;99.90;;;;;;4940013;29;20232;-86
2023/07/12 00:06:17;;;;;;;5.82;2.40;;;21.20;99.90;;;;;;4923663;29;20186;-86
2023/07/12 00:08:44;;;;;;;7.45;2.55;;;21.20;99.90;;;;;;4924745;29;20183;-86
2023/07/12 00:11:19;;;;;;;3.60;2.13;;;21.20;99.90;;;;;;4940750;29;20283;-86
2023/07/12 00:13:45;;;;;;;6.85;2.70;;;21.10;99.90;;;;;;4941065;29;20349;-88
2023/07/12 00:16:19;;;;;;;5.82;2.55;;;21.10;99.90;;;;;;4941423;29;20191;-87
2023/07/12 00:18:45;;;;;;;5.78;2.47;;;21.10;99.90;;;;;;4942971;29;20167;-86
2023/07/12 00:21:12;;;;;;;2.80;2.20;;;21.10;99.90;;;;;;4925717;29;20706;-86
2023/07/12 00:23:39;;;;;;;4.60;2.70;;;21.00;99.90;;;;;;4925477;29;20317;-87
2023/07/12 00:26:27;;;;;;;4.47;2.70;;;21.00;99.90;;;;;;4907405;29;20626;-87
2023/07/12 00:28:55;;;;;;;5.97;2.55;;;21.00;99.90;;;;;;4919635;29;20183;-86
2023/07/12 00:31:21;;;;;;;5.82;2.42;;;21.00;99.90;;;;;;4919582;29;20187;-86
2023/07/12 00:33:47;;;;;;;3.45;2.38;;;21.00;99.90;;;;;;4920610;29;20254;-86
2023/07/12 00:36:21;;;;;;;6.93;2.85;;;21.00;99.90;;;;;;4907054;29;20187;-86
2023/07/12 00:38:46;;;;;;;3.88;2.38;;;20.90;99.90;;;;;;4924222;29;20201;-86
2023/07/12 00:41:19;;;;;;;5.88;2.47;;;20.90;99.90;;;;;;4923868;29;20211;-87
2023/07/12 00:43:53;;;;;;;5.20;2.35;;;20.90;99.90;;;;;;4942010;29;20616;-87
2023/07/12 00:46:41;;;;;;;4.50;2.53;;;20.90;99.90;;;;;;4924312;29;20266;-87
2023/07/12 00:49:10;;;;;;;4.30;2.40;;;20.80;99.90;;;;;;4942617;29;20179;-86
2023/07/12 00:51:57;;;;;;;5.78;2.45;;;20.80;99.90;;;;;;4928706;29;20289;-87
2023/07/12 00:54:46;;;;;;;6.75;2.28;;;20.80;99.90;;;;;;4943860;29;20167;-86
2023/07/12 00:57:12;;;;;;;7.03;2.58;;;20.80;99.90;;;;;;4926592;29;20180;-87
2023/07/12 00:59:39;;;;;;;7.43;2.67;;;20.80;99.90;;;;;;4942165;29;20245;-87
2023/07/12 01:02:05;;;;;;;8.02;2.67;;;20.80;99.90;;;;;;4925534;29;20357;-86
2023/07/12 01:04:36;;;;;;;4.25;2.78;;;20.70;99.90;;;;;;4941235;28;20179;-86
2023/07/12 01:07:03;;;;;;;3.60;2.75;;;20.70;99.90;;;;;;4941156;28;20195;-86
2023/07/12 01:09:29;;;;;;;4.78;2.80;;;20.70;99.90;;;;;;4925900;29;20282;-86
2023/07/12 01:11:56;;;;;;;4.25;2.45;;;20.70;99.90;;;;;;4908498;29;20188;-86
2023/07/12 01:14:25;;;;;;;8.05;2.88;;;20.70;99.90;;;;;;4924080;29;20183;-87
2023/07/12 01:16:57;;;;;;;5.18;2.85;;;20.60;99.90;;;;;;4924516;29;20187;-87
2023/07/12 01:19:23;;;;;;;5.30;2.78;;;20.60;99.90;;;;;;4940731;29;20258;-86
2023/07/12 01:21:51;;;;;;;4.32;2.90;;;20.50;99.90;;;;;;4925047;29;20238;-86
2023/07/12 01:24:17;;;;;;;6.25;2.80;;;20.50;99.90;;;;;;4939719;29;20234;-86
2023/07/12 01:26:47;;;;;;;6.28;3.10;;;20.50;99.90;;;;;;4939855;29;20206;-87
2023/07/12 01:29:14;;;;;;;6.05;3.10;;;20.50;99.90;;;;;;4939554;29;20270;-88
2023/07/12 01:31:42;;;;;;;6.57;3.17;;;20.50;99.90;;;;;;4924663;29;20183;-87
2023/07/12 01:34:08;;;;;;;6.75;3.00;;;20.40;99.90;;;;;;4926153;29;20277;-86
2023/07/12 01:36:35;;;;;;;5.38;3.30;;;20.40;99.90;;;;;;4926722;29;20676;-86
2023/07/12 01:39:03;;;;;;;8.77;3.30;;;20.40;99.90;;;;;;4926453;29;20179;-86
2023/07/12 01:41:29;;;;;;;7.57;3.63;;;20.40;99.90;;;;;;4941105;29;20311;-86
2023/07/12 01:43:55;;;;;;;7.28;3.78;;;20.40;99.90;;;;;;4924872;29;20219;-86
2023/07/12 01:46:21;;;;;;;7.18;3.25;;;20.40;99.90;;;;;;4940184;29;20632;-87
2023/07/12 01:48:48;;;;;;;7.70;3.50;;;20.30;99.90;;;;;;4939971;29;20179;-86
2023/07/12 01:51:15;;;;;;;6.97;3.63;;;20.30;99.90;;;;;;4924035;29;20270;-86
2023/07/12 01:53:41;;;;;;;5.85;3.40;;;20.30;99.90;;;;;;4940302;28;20194;-85
2023/07/12 01:56:07;;;;;;;6.07;3.45;;;20.20;99.90;;;;;;4923326;29;20179;-87
2023/07/12 01:58:33;;;;;;;5.72;3.58;;;20.20;99.90;;;;;;4940073;29;20213;-86
2023/07/12 02:01:00;;;;;;;7.90;3.65;;;20.20;99.90;;;;;;4939877;29;20215;-86
2023/07/12 02:03:26;;;;;;;9.57;3.70;;;20.20;99.90;;;;;;4924212;29;20203;-86
2023/07/12 02:05:53;;;;;;;5.80;3.45;;;20.20;99.90;;;;;;4940612;29;20210;-86
2023/07/12 02:08:20;;;;;;;8.48;3.92;;;20.10;99.90;;;;;;4924215;29;20206;-86
2023/07/12 02:10:46;;;;;;;7.88;3.72;;;20.10;99.90;;;;;;4924264;29;20195;-85
2023/07/12 02:13:12;;;;;;;16.17;4.47;;;20.10;99.90;;;;;;4923615;29;20190;-86
2023/07/12 02:15:38;;;;;;;9.10;4.38;;;20.10;99.90;;;;;;4922527;29;20233;-87
2023/07/12 02:18:05;;;;;;;6.70;3.88;;;20.00;99.90;;;;;;4924450;29;20483;-86
2023/07/12 02:20:32;;;;;;;11.13;4.10;;;20.00;99.90;;;;;;4908357;29;20194;-88
2023/07/12 02:22:58;;;;;;;9.65;4.20;;;20.00;99.90;;;;;;4923740;29;20680;-86
2023/07/12 02:25:23;;;;;;;10.35;4.22;;;20.00;99.90;;;;;;4907960;29;20203;-87
2023/07/12 02:27:50;;;;;;;12.75;4.78;;;19.90;99.90;;;;;;4923852;29;20195;-84
2023/07/12 02:30:22;;;;;;;8.98;4.82;;;19.90;99.90;;;;;;4939577;29;20179;-87
2023/07/12 02:32:49;;;;;;;9.38;4.68;;;19.90;99.90;;;;;;4923814;29;20274;-86
2023/07/12 02:35:15;;;;;;;9.07;4.43;;;19.90;99.90;;;;;;4923254;29;20695;-88
2023/07/12 02:37:41;;;;;;;10.65;4.72;;;19.80;99.90;;;;;;4923220;29;20184;-84
2023/07/12 02:40:09;;;;;;;8.77;4.70;;;19.80;99.90;;;;;;4939496;29;20658;-87
2023/07/12 02:42:35;;;;;;;12.88;5.07;;;19.80;99.90;;;;;;4924128;29;20239;-87
2023/07/12 02:45:01;;;;;;;9.80;4.95;;;19.80;99.90;;;;;;4924523;29;20191;-87
2023/07/12 02:47:26;;;;;;;10.13;4.43;;;19.80;99.90;;;;;;4941108;29;20188;-85
2023/07/12 02:49:52;;;;;;;11.25;4.70;;;19.70;99.90;;;;;;4941511;29;20709;-86
2023/07/12 02:52:18;;;;;;;16.63;5.18;;;19.70;99.90;;;;;;4942236;29;20580;-86
2023/07/12 02:54:44;;;;;;;11.43;5.00;;;19.70;99.90;;;;;;4925183;29;20187;-86
2023/07/12 02:57:12;;;;;;;11.25;4.97;;;19.70;99.90;;;;;;4923686;29;20191;-86
2023/07/12 02:59:38;;;;;;;13.32;4.90;;;19.60;99.90;;;;;;4939446;29;20283;-86
2023/07/12 03:02:07;;;;;;;9.80;5.15;;;19.60;99.90;;;;;;4924291;29;20215;-86
2023/07/12 03:04:33;;;;;;;15.90;5.28;;;19.60;99.90;;;;;;4940100;29;20632;-87
2023/07/12 03:06:59;;;;;;;12.60;4.38;;;19.60;99.90;;;;;;4923823;29;20346;-86
2023/07/12 03:09:25;;;;;;;12.00;4.90;;;19.50;99.90;;;;;;4908622;29;20315;-86
2023/07/12 03:11:51;;;;;;;11.45;4.75;;;19.50;99.90;;;;;;4909312;29;20187;-87
2023/07/12 03:14:18;;;;;;;13.85;4.55;;;19.50;99.90;;;;;;4924628;29;20262;-87
2023/07/12 03:16:44;;;;;;;14.00;4.80;;;19.50;99.90;;;;;;4924843;29;20183;-86
2023/07/12 03:19:11;;;;;;;11.85;4.15;;;19.40;99.90;;;;;;4925469;29;20235;-86
2023/07/12 03:21:37;;;;;;;19.98;4.70;;;19.40;99.90;;;;;;4941540;29;20215;-86
2023/07/12 03:24:03;;;;;;;15.77;4.72;;;19.40;99.90;;;;;;4928530;29;20250;-87
2023/07/12 03:26:29;;;;;;;20.00;4.70;;;19.40;99.90;;;;;;4929793;29;20188;-86
2023/07/12 03:28:56;;;;;;;17.67;4.88;;;19.30;99.90;;;;;;4928920;29;20183;-86
2023/07/12 03:31:22;;;;;;;11.85;4.90;;;19.30;99.90;;;;;;4928556;29;20294;-86
2023/07/12 03:33:48;;;;;;;17.70;4.80;;;19.30;99.90;;;;;;4944517;28;20187;-88
2023/07/12 03:36:15;;;;;;;11.02;4.30;;;19.30;99.90;;;;;;4928244;29;20183;-86
2023/07/12 03:38:41;;;;;;;16.67;4.63;;;19.30;99.90;;;;;;4943771;29;20176;-86
2023/07/12 03:41:09;;;;;;;13.70;5.07;;;19.30;99.90;;;;;;4911596;29;20215;-87
2023/07/12 03:43:36;;;;;;;13.68;4.93;;;19.30;99.90;;;;;;4943123;28;20260;-87
2023/07/12 03:46:04;;;;;;;15.43;5.15;;;19.20;99.90;;;;;;4942754;29;20226;-86
2023/07/12 03:48:30;;;;;;;14.40;5.30;;;19.20;99.90;;;;;;4943076;29;20188;-89
2023/07/12 03:50:56;;;;;;;14.52;5.18;;;19.20;99.90;;;;;;4943793;29;20635;-87
2023/07/12 03:53:23;;;;;;;24.05;5.50;;;19.10;99.90;;;;;;4927245;29;20192;-87
2023/07/12 03:55:49;;;;;;;16.98;4.90;;;19.10;99.90;;;;;;4927392;29;20243;-85
2023/07/12 03:58:18;;;;;;;13.85;4.75;;;19.10;99.90;;;;;;4943643;29;20183;-86
2023/07/12 04:00:46;;;;;;;14.75;4.97;;;19.10;99.90;;;;;;4926090;29;20226;-86
2023/07/12 04:03:12;;;;;;;14.40;4.93;;;19.10;99.90;;;;;;4925959;29;20311;-85
2023/07/12 04:05:40;;;;;;;16.63;4.97;;;19.10;99.90;;;;;;4942143;29;20213;-86
2023/07/12 04:08:06;;;;;;;14.23;4.70;;;19.10;99.90;;;;;;4939139;29;20194;-85
2023/07/12 04:10:33;;;;;;;15.75;5.15;;;19.10;99.90;;;;;;4922191;29;20290;-85
2023/07/12 04:13:00;;;;;;;13.57;5.18;;;19.10;99.90;;;;;;4921461;29;20196;-86
2023/07/12 04:15:25;;;;;;;19.48;5.43;;;19.00;99.90;;;;;;4921297;29;20184;-86
2023/07/12 04:17:52;;;;;;;17.08;5.30;;;19.00;99.90;;;;;;4935666;29;20589;-86
2023/07/12 04:20:18;;;;;;;20.05;5.15;;;19.00;99.90;;;;;;4918557;29;20179;-86
2023/07/12 04:22:47;;;;;;;17.85;5.45;;;19.00;99.90;;;;;;4934539;29;20214;-87
2023/07/12 04:25:14;;;;;;;16.83;5.60;;;19.00;99.90;;;;;;4919797;29;20238;-86
2023/07/12 04:27:40;;;;;;;15.77;5.20;;;19.00;99.90;;;;;;4935933;28;20635;-85
2023/07/12 04:30:10;;;;;;;20.00;5.18;;;19.00;99.90;;;;;;4905025;29;20290;-87
2023/07/12 04:32:36;;;;;;;18.30;4.90;;;19.00;99.90;;;;;;4924167;29;20274;-87
2023/07/12 04:35:03;;;;;;;20.02;4.95;;;18.90;99.90;;;;;;4924307;29;20207;-87
2023/07/12 04:37:30;;;;;;;16.38;5.22;;;19.00;99.90;;;;;;4909335;29;20585;-86
2023/07/12 04:39:56;;;;;;;19.08;4.88;;;19.00;99.90;;;;;;4941977;29;20178;-86
2023/07/12 04:42:22;;;;;;;18.38;5.32;;;19.00;99.90;;;;;;4911390;29;20215;-86
2023/07/12 04:44:48;;;;;;;17.92;5.10;;;19.00;99.90;;;;;;4942740;29;20187;-86
2023/07/12 04:47:17;;;;;;;19.98;5.25;;;19.00;99.90;;;;;;4924074;29;20194;-86
2023/07/12 04:49:43;;;;;;;18.52;5.03;;;18.90;99.90;;;;;;4942232;29;20727;-86
2023/07/12 04:52:13;;;;;;;15.30;5.25;;;18.90;99.90;;;;;;4946285;29;20187;-86
2023/07/12 04:54:42;;;;;;;16.13;5.40;;;19.00;99.90;;;;;;4947483;28;20238;-86
2023/07/12 04:57:09;;;;;;;16.92;5.10;;;18.90;99.90;;;;;;4931825;29;20179;-86
2023/07/12 04:59:35;;;;;;;20.02;5.43;;;19.00;99.90;;;;;;4947428;29;20180;-87
2023/07/12 05:02:02;;;;;;;18.17;5.50;;;18.90;99.90;;;;;;4929461;29;20279;-85
2023/07/12 05:04:28;;;;;;;13.40;5.13;;;18.90;99.90;;;;;;4928260;29;20195;-85
2023/07/12 05:06:54;;;;;;;16.88;5.72;;;18.90;99.90;;;;;;4940427;29;20183;-86
2023/07/12 05:09:21;;;;;;;16.30;5.65;;;18.90;99.90;;;;;;4942255;29;20184;-87
2023/07/12 05:11:51;;;;;;;18.67;5.88;;;18.90;99.90;;;;;;4944019;29;20187;-86
2023/07/12 05:14:17;;;;;;;21.17;6.28;;;19.00;99.90;;;;;;4929161;29;20250;-88
2023/07/12 05:16:43;;;;;;;16.42;6.47;;;19.00;99.90;;;;;;4929050;29;20179;-85
2023/07/12 05:19:08;;;;;;;17.02;5.90;;;19.00;99.90;;;;;;4911615;29;20643;-85
2023/07/12 05:21:34;;;;;;;22.48;6.55;;;19.00;99.90;;;;;;4926622;29;20215;-86
2023/07/12 05:24:00;;;;;;;13.43;5.65;;;19.00;99.90;;;;;;4943196;28;20226;-88
2023/07/12 05:26:26;;;;;;;19.95;5.78;;;19.00;99.90;;;;;;4911921;29;20246;-86
2023/07/12 05:28:52;;;;;;;14.50;5.43;;;19.10;99.90;;;;;;4924561;29;20191;-86
2023/07/12 05:31:18;;;;;;;17.05;5.75;;;19.10;99.90;;;;;;4938004;29;20226;-86
2023/07/12 05:33:46;;;;;;;13.75;5.53;;;19.10;99.90;;;;;;4921804;29;20184;-86
2023/07/12 05:36:14;;;;;;;20.80;6.05;;;19.00;99.90;;;;;;4941789;29;20183;-86
2023/07/12 05:38:39;;;;;;;19.42;5.97;;;19.10;99.90;;;;;;4944030;29;20187;-87
2023/07/12 05:41:05;;;;;;;17.85;5.65;;;19.10;99.90;;;;;;4928668;29;20302;-87
2023/07/12 05:43:33;;;;;;;19.73;6.07;;;19.10;99.90;;;;;;4945519;29;20207;-87
2023/07/12 05:46:00;;;;;;;15.38;5.57;;;19.10;99.90;;;;;;4898536;29;20227;-87
2023/07/12 05:48:26;;;;;;;17.75;6.10;;;19.20;99.90;;;;;;4949915;29;20262;-87
2023/07/12 05:50:54;;;;;;;15.93;5.75;;;19.20;99.90;;;;;;4930339;29;20218;-86
2023/07/12 05:53:20;;;;;;;24.85;5.60;;;19.30;99.90;;;;;;4946551;29;20180;-86
2023/07/12 05:55:46;;;;;;;17.90;6.13;;;19.30;99.90;;;;;;4947253;29;20207;-86
2023/07/12 05:58:12;;;;;;;25.13;6.40;;;19.30;99.90;;;;;;4947608;29;20183;-85
2023/07/12 06:00:39;;;;;;;16.17;5.30;;;19.30;99.90;;;;;;4929310;29;20187;-86
2023/07/12 06:03:05;;;;;;;21.60;6.25;;;19.30;99.90;;;;;;4928032;29;20196;-85
2023/07/12 06:05:32;;;;;;;18.63;5.70;;;19.30;99.90;;;;;;4914580;29;20184;-85
2023/07/12 06:07:57;;;;;;;18.75;5.45;;;19.30;99.90;;;;;;4943957;29;20199;-85
2023/07/12 06:10:23;;;;;;;23.42;5.90;;;19.30;99.90;;;;;;4929234;29;20184;-86
2023/07/12 06:12:49;;;;;;;18.85;5.40;;;19.30;99.90;;;;;;4925968;29;20191;-86
2023/07/12 06:15:15;;;;;;;19.33;5.50;;;19.30;99.90;;;;;;4910234;29;20194;-86
2023/07/12 06:17:41;;;;;;;17.50;5.60;;;19.30;99.90;;;;;;4943209;29;20183;-85
2023/07/12 06:20:07;;;;;;;16.92;5.50;;;19.30;99.90;;;;;;4926247;29;20258;-87
2023/07/12 06:22:34;;;;;;;16.65;5.90;;;19.30;99.90;;;;;;4927958;29;20214;-85
2023/07/12 06:25:00;;;;;;;18.73;5.90;;;19.30;99.90;;;;;;4927723;29;20231;-87
2023/07/12 06:27:25;;;;;;;17.27;5.55;;;19.30;99.90;;;;;;4931220;29;20187;-86
2023/07/12 06:29:52;;;;;;;14.95;6.20;;;19.40;99.90;;;;;;4928979;29;20195;-88
2023/07/12 06:32:17;;;;;;;16.25;5.53;;;19.40;99.90;;;;;;4923507;29;20552;-85
2023/07/12 06:34:44;;;;;;;14.02;6.18;;;19.50;99.90;;;;;;4923315;29;20251;-85
2023/07/12 06:37:10;;;;;;;22.73;6.65;;;19.50;99.90;;;;;;4923205;29;20187;-86
2023/07/12 06:39:36;;;;;;;19.10;6.30;;;19.50;99.90;;;;;;4906681;29;20207;-86
2023/07/12 06:42:02;;;;;;;17.55;6.22;;;19.50;99.90;;;;;;4940505;29;20235;-85
2023/07/12 06:44:32;;;;;;;17.48;6.22;;;19.60;99.90;;;;;;4942617;29;20589;-86
2023/07/12 06:46:58;;;;;;;21.95;6.18;;;19.60;99.90;;;;;;4940738;29;20182;-86
2023/07/12 06:49:23;;;;;;;17.23;5.63;;;19.70;99.90;;;;;;4911591;29;20195;-86
2023/07/12 06:51:49;;;;;;;16.65;6.45;;;19.80;99.90;;;;;;4943245;29;20206;-86
2023/07/12 06:54:16;;;;;;;15.50;5.80;;;19.80;99.90;;;;;;4912278;29;20577;-87
2023/07/12 06:56:42;;;;;;;21.10;6.93;;;19.90;99.90;;;;;;4914969;29;20190;-87
2023/07/12 06:59:10;;;;;;;17.88;6.13;;;19.90;99.90;;;;;;4931963;29;20593;-86
2023/07/12 07:01:36;;;;;;;20.52;6.43;;;19.90;99.90;;;;;;4948630;28;20211;-87
2023/07/12 07:04:03;;;;;;;20.77;6.53;;;20.00;99.90;;;;;;4950069;29;20279;-86
2023/07/12 07:06:29;;;;;;;19.90;6.13;;;20.00;99.90;;;;;;4932108;29;20187;-86
2023/07/12 07:08:55;;;;;;;14.50;5.55;;;20.10;99.90;;;;;;4946868;29;20195;-85
2023/07/12 07:11:22;;;;;;;16.67;6.18;;;20.10;99.90;;;;;;4912327;29;20274;-85
2023/07/12 07:13:50;;;;;;;16.05;5.60;;;20.20;99.90;;;;;;4934379;29;20183;-87
2023/07/12 07:16:17;;;;;;;14.05;5.45;;;20.20;99.90;;;;;;4919883;29;20250;-88
2023/07/12 07:18:43;;;;;;;12.63;5.25;;;20.30;99.90;;;;;;4950621;29;20180;-86
2023/07/12 07:21:09;;;;;;;16.30;5.00;;;20.30;99.90;;;;;;4935249;29;20219;-88
2023/07/12 07:23:35;;;;;;;19.60;4.70;;;20.40;99.90;;;;;;4951497;28;20238;-86
2023/07/12 07:26:06;;;;;;;21.05;5.13;;;20.40;99.90;;;;;;4934096;29;20191;-87
2023/07/12 07:28:32;;;;;;;15.63;5.03;;;20.50;99.90;;;;;;4949236;28;20203;-87
2023/07/12 07:31:00;;;;;;;15.93;5.00;;;20.50;99.90;;;;;;4947760;29;20253;-88
2023/07/12 07:33:26;;;;;;;17.45;5.15;;;20.60;99.90;;;;;;4916989;29;20683;-87
2023/07/12 07:35:54;;;;;;;15.68;4.75;;;20.60;99.90;;;;;;4933067;29;20218;-86
2023/07/12 07:38:25;;;;;;;15.57;4.70;;;20.60;99.90;;;;;;4918642;29;20202;-88
2023/07/12 07:40:52;;;;;;;23.85;7.63;;;20.70;99.90;;;;;;4933107;29;20214;-88
2023/07/12 07:43:19;;;;;;;20.63;5.15;;;20.70;99.90;;;;;;4942692;29;20258;-84
2023/07/12 07:45:45;;;;;;;16.83;5.45;;;20.70;99.90;;;;;;4923915;29;20206;-87
2023/07/12 07:48:10;;;;;;;25.02;5.10;;;20.70;99.90;;;;;;4940771;28;20516;-87
2023/07/12 07:50:41;;;;;;;16.77;4.38;;;20.80;99.90;;;;;;4909167;29;20270;-86
2023/07/12 07:53:07;;;;;;;14.68;3.80;;;20.80;99.90;;;;;;4926298;29;20179;-85
2023/07/12 07:55:32;;;;;;;15.45;5.35;;;20.90;99.90;;;;;;4910555;29;20213;-86
2023/07/12 07:57:58;;;;;;;18.40;5.68;;;20.90;99.90;;;;;;4924151;29;20192;-86
2023/07/12 08:00:24;;;;;;;14.95;4.32;;;20.90;99.90;;;;;;4907818;29;20183;-84
2023/07/12 08:02:52;;;;;;;17.85;4.10;;;21.00;99.90;;;;;;4922964;29;20238;-85
2023/07/12 08:05:18;;;;;;;14.30;3.88;;;20.90;99.90;;;;;;4921366;29;20198;-86
2023/07/12 08:07:47;;;;;;;13.32;3.15;;;20.90;99.90;;;;;;4938775;29;20286;-86
2023/07/12 08:10:17;;;;;;;6.95;2.58;;;20.90;99.90;;;;;;4937755;29;20191;-86
2023/07/12 08:12:44;;;;;;;11.73;3.63;;;20.80;99.90;;;;;;4921486;29;20186;-85
2023/07/12 08:15:10;;;;;;;10.88;3.30;;;20.80;99.90;;;;;;4922197;29;20670;-85
2023/07/12 08:17:37;;;;;;;13.45;3.17;;;20.70;99.90;;;;;;4940866;29;20646;-85
2023/07/12 08:20:04;;;;;;;10.23;3.33;;;20.70;99.90;;;;;;4925290;29;20231;-86
2023/07/12 08:22:31;;;;;;;11.60;3.40;;;20.70;99.90;;;;;;4924827;29;20239;-87
2023/07/12 08:24:57;;;;;;;18.52;4.38;;;20.70;99.90;;;;;;4911117;29;20298;-86
2023/07/12 08:27:24;;;;;;;9.55;3.40;;;20.70;99.90;;;;;;4924177;29;20225;-87
2023/07/12 08:29:51;;;;;;;9.40;2.83;;;20.60;99.90;;;;;;4923945;29;20269;-88
2023/07/12 08:32:18;;;;;;;6.88;2.30;;;20.50;99.90;;;;;;4922975;29;20187;-86
2023/07/12 08:34:44;;;;;;;8.68;2.85;;;20.40;99.90;;;;;;4921007;29;20199;-86
2023/07/12 08:37:11;;;;;;;7.90;2.45;;;20.30;99.90;;;;;;4906277;29;20262;-86
2023/07/12 08:39:36;;;;;;;8.85;2.70;;;20.20;99.90;;;;;;4905666;29;20270;-87
2023/07/12 08:42:13;;;;;;;7.80;3.20;;;20.20;99.90;;;;;;4936425;29;20563;-87
2023/07/12 08:44:39;;;;;;;9.25;2.90;;;20.20;99.90;;;;;;4936297;29;20187;-85
2023/07/12 08:47:13;;;;;;;8.90;3.03;;;20.30;99.90;;;;;;4919611;29;20185;-87
2023/07/12 08:49:39;;;;;;;8.90;2.83;;;20.40;99.90;;;;;;4935574;29;20177;-88
2023/07/12 08:52:15;;;;;;;10.25;3.20;;;20.40;99.90;;;;;;4919360;29;20278;-87
2023/07/12 08:54:41;;;;;;;7.43;3.10;;;20.40;99.90;;;;;;4920741;29;20175;-86
2023/07/12 08:57:19;;;;;;;8.30;3.40;;;20.50;99.90;;;;;;4920337;29;20208;-89
2023/07/12 09:00:00;;;;;;;11.07;3.42;;;20.40;99.90;;;;;;4937386;28;20238;-87
2023/07/12 09:02:26;;;;;;;13.32;3.65;;;20.40;99.90;;;;;;4921710;29;20225;-87
2023/07/12 09:04:56;;;;;;;12.10;3.95;;;20.40;99.90;;;;;;4904793;29;20183;-86
2023/07/12 09:07:31;;;;;;;13.52;3.90;;;20.40;99.90;;;;;;4937357;29;20175;-87
2023/07/12 09:09:59;;;;;;;12.85;3.97;;;20.40;99.90;;;;;;4939157;29;20203;-87
2023/07/12 09:12:29;;;;;;;18.13;4.53;;;20.50;99.90;;;;;;4925566;29;20519;-86
2023/07/12 09:15:11;;;;;;;11.82;4.22;;;20.50;99.90;;;;;;4941944;29;20680;-86
2023/07/12 09:17:44;;;;;;;12.40;4.20;;;20.70;99.90;;;;;;4926139;29;20190;-84
2023/07/12 09:20:32;;;;;;;13.45;3.60;;;20.80;99.90;;;;;;4926004;29;20381;-86
2023/07/12 09:22:58;;;;;;;17.98;3.83;;;20.90;99.90;;;;;;4944940;29;20175;-84
2023/07/12 09:25:33;;;;;;;14.13;4.25;;;21.00;99.90;;;;;;4942261;29;20238;-85
2023/07/12 09:27:59;;;;;;;9.48;2.95;;;21.20;99.90;;;;;;4925503;29;20262;-85
2023/07/12 09:30:27;;;;;;;9.57;3.10;;;21.30;99.90;;;;;;4928693;29;20211;-84
2023/07/12 09:32:54;;;;;;;12.02;3.35;;;21.40;99.90;;;;;;4927012;29;20194;-85
2023/07/12 09:35:45;;;;;;;10.43;3.05;;;21.40;99.90;;;;;;4943706;29;20187;-86
2023/07/12 09:38:13;;;;;;;9.20;2.72;;;21.40;99.90;;;;;;4925318;29;20179;-85
2023/07/12 09:40:45;;;;;;;8.70;2.65;;;21.40;99.90;;;;;;4925481;29;20658;-84
2023/07/12 09:43:23;;;;;;;11.57;3.20;;;21.30;99.90;;;;;;4941665;29;20586;-85
2023/07/12 09:46:23;;;;;;;8.85;2.88;;;21.30;99.90;;;;;;4942939;29;20640;-84
2023/07/12 09:48:59;;;;;;;10.43;3.35;;;21.30;99.90;;;;;;4925526;29;20211;-84
2023/07/12 09:51:29;;;;;;;14.15;3.28;;;21.40;99.90;;;;;;4941976;29;20167;-84
2023/07/12 09:54:20;;;;;;;14.30;3.35;;;21.50;99.90;;;;;;4940137;29;20226;-84
2023/07/12 09:56:52;;;;;;;10.27;3.25;;;21.60;99.90;;;;;;4940289;28;20179;-84
2023/07/12 09:59:45;;;;;;;11.13;3.17;;;21.80;99.90;;;;;;4938601;29;20171;-85
2023/07/12 10:02:37;;;;;;;11.77;3.00;;;21.90;99.90;;;;;;4922985;29;20285;-85
2023/07/12 10:05:18;;;;;;;9.13;3.13;;;22.10;99.90;;;;;;4937805;28;20183;-85
2023/07/12 10:08:05;;;;;;;7.90;2.70;;;22.30;99.90;;;;;;4937320;29;20245;-85
2023/07/12 10:10:45;;;;;;;7.45;2.85;;;22.40;99.90;;;;;;4938232;29;20172;-85
2023/07/12 10:13:36;;;;;;;7.00;2.85;;;22.50;99.90;;;;;;4938272;29;20167;-85
2023/07/12 10:16:05;;;;;;;7.38;2.63;;;22.60;99.90;;;;;;4923879;29;20179;-85
2023/07/12 10:18:36;;;;;;;7.32;2.60;;;22.60;99.90;;;;;;4939696;29;20262;-84
2023/07/12 10:21:03;;;;;;;8.77;2.95;;;22.70;99.90;;;;;;4921406;29;20207;-84
2023/07/12 10:23:35;;;;;;;6.35;2.30;;;22.70;99.90;;;;;;4938717;29;20180;-84
2023/07/12 10:26:06;;;;;;;8.07;2.58;;;22.80;99.90;;;;;;4939192;29;20172;-84
2023/07/12 10:28:58;;;;;;;8.07;2.50;;;22.80;99.90;;;;;;4940176;29;20163;-86
2023/07/12 10:31:45;;;;;;;7.47;2.53;;;22.80;99.90;;;;;;4939434;29;20203;-84
2023/07/12 10:34:42;;;;;;;7.53;2.50;;;22.70;99.90;;;;;;4938987;29;20230;-84
2023/07/12 10:37:23;;;;;;;4.97;2.13;;;22.70;99.90;;;;;;4923728;29;20175;-85
2023/07/12 10:39:49;;;;;;;8.20;1.90;;;22.70;99.90;;;;;;4922619;29;20188;-85
2023/07/12 10:42:18;;;;;;;6.22;2.10;;;22.70;99.90;;;;;;4922031;29;20226;-83
2023/07/12 10:44:52;;;;;;;5.38;2.15;;;22.80;99.90;;;;;;4921869;29;20182;-85
2023/07/12 10:47:20;;;;;;;4.65;2.42;;;22.80;99.90;;;;;;4922769;29;20228;-84
2023/07/12 10:49:59;;;;;;;6.20;2.38;;;22.90;99.90;;;;;;4936582;29;20673;-85
2023/07/12 10:52:28;;;;;;;9.68;2.50;;;23.00;99.90;;;;;;4921255;29;20221;-85
2023/07/12 10:55:09;;;;;;;4.95;1.98;;;23.10;99.90;;;;;;4921654;29;20190;-85
2023/07/12 10:57:46;;;;;;;5.88;1.67;;;23.20;99.90;;;;;;4922094;29;20185;-84
2023/07/12 11:00:18;;;;;;;4.72;1.75;;;23.30;99.90;;;;;;4937151;29;20322;-85
2023/07/12 11:02:47;;;;;;;5.97;2.20;;;23.40;99.90;;;;;;4940014;29;20238;-88
2023/07/12 11:05:37;;;;;;;8.10;2.20;;;23.40;99.90;;;;;;4924946;29;20263;-85
2023/07/12 11:08:03;;;;;;;8.98;2.30;;;23.50;99.90;;;;;;4928228;29;20208;-84
2023/07/12 11:10:35;;;;;;;7.38;2.20;;;23.60;99.90;;;;;;4942400;29;20577;-85
2023/07/12 11:13:10;;;;;;;6.80;2.10;;;23.60;99.90;;;;;;4925107;29;20230;-87
2023/07/12 11:15:58;;;;;;;6.93;1.80;;;23.80;99.90;;;;;;4923812;29;20206;-85
2023/07/12 11:18:34;;;;;;;5.25;1.83;;;23.90;99.90;;;;;;4941319;29;20174;-85
2023/07/12 11:21:24;;;;;;;4.32;1.80;;;24.00;99.90;;;;;;4939817;29;20237;-84
2023/07/12 11:23:50;;;;;;;7.15;1.83;;;24.10;99.90;;;;;;4923641;29;20231;-85
2023/07/12 11:26:29;;;;;;;5.20;1.75;;;24.00;99.90;;;;;;4940404;29;20176;-84
2023/07/12 11:29:23;;;;;;;4.65;1.70;;;24.10;99.90;;;;;;4925644;29;20175;-83
2023/07/12 11:31:59;;;;;;;5.10;1.60;;;24.10;99.90;;;;;;4945571;29;20278;-85
2023/07/12 11:34:25;;;;;;;4.50;2.00;;;24.10;99.90;;;;;;4929449;29;20239;-85
2023/07/12 11:36:54;;;;;;;5.75;1.90;;;24.10;99.90;;;;;;4948092;29;20175;-84
2023/07/12 11:39:23;;;;;;;7.63;1.75;;;24.20;99.90;;;;;;4931029;29;20184;-85
2023/07/12 11:41:56;;;;;;;3.75;1.48;;;24.30;99.90;;;;;;4946358;29;20257;-83
2023/07/12 11:44:22;;;;;;;6.05;1.48;;;24.40;99.90;;;;;;4927640;29;20184;-85
2023/07/12 11:46:50;;;;;;;5.00;1.58;;;24.40;99.90;;;;;;4925525;29;20196;-85
2023/07/12 11:49:17;;;;;;;6.07;1.60;;;24.50;99.90;;;;;;4939831;29;20636;-84
2023/07/12 11:51:47;;;;;;;2.60;1.17;;;24.40;99.90;;;;;;4940640;29;20183;-85
2023/07/12 11:54:20;;;;;;;3.85;1.38;;;24.50;99.90;;;;;;4939268;29;20179;-86
2023/07/12 11:56:49;;;;;;;2.13;1.23;;;24.50;99.90;;;;;;4937737;29;20190;-85
2023/07/12 11:59:25;;;;;;;3.70;1.20;;;24.50;99.60;;;;;;4921794;29;20190;-85
2023/07/12 12:01:52;;;;;;;1.92;1.00;;;24.60;98.50;;;;;;4921287;29;20215;-85
2023/07/12 12:04:21;;;;;;;2.92;1.08;;;24.60;97.90;;;;;;4921026;29;20184;-86
2023/07/12 12:06:50;;;;;;;5.75;1.23;;;24.70;97.20;;;;;;4937446;29;20175;-85
2023/07/12 12:09:15;;;;;;;2.63;1.10;;;24.70;96.50;;;;;;4905812;29;20187;-85
2023/07/12 12:11:41;;;;;;;4.13;1.00;;;24.70;95.70;;;;;;4921445;29;20184;-85
2023/07/12 12:14:18;;;;;;;3.85;1.15;;;24.70;94.80;;;;;;4937315;29;20179;-86
2023/07/12 12:16:52;;;;;;;2.78;0.85;;;24.70;94.10;;;;;;4921702;29;20326;-84
2023/07/12 12:19:19;;;;;;;4.35;1.05;;;24.70;93.70;;;;;;4937610;29;20266;-85
2023/07/12 12:21:59;;;;;;;5.80;1.60;;;24.70;93.20;;;;;;4938538;29;20234;-85
2023/07/12 12:24:25;;;;;;;5.68;1.02;;;24.80;93.00;;;;;;4940298;29;20230;-85
2023/07/12 12:26:52;;;;;;;3.80;1.00;;;24.80;93.00;;;;;;4940411;29;20228;-84
2023/07/12 12:29:23;;;;;;;2.38;0.80;;;24.80;93.20;;;;;;4938583;28;20183;-83
2023/07/12 12:31:49;;;;;;;4.03;1.10;;;24.90;92.40;;;;;;4922553;29;20594;-84
2023/07/12 12:34:17;;;;;;;3.45;1.15;;;24.90;91.80;;;;;;4922298;29;20175;-85
2023/07/12 12:37:00;;;;;;;3.03;1.00;;;24.90;91.60;;;;;;4922032;29;20187;-85
2023/07/12 12:39:27;;;;;;;2.15;0.90;;;24.90;91.20;;;;;;4937825;29;20611;-85
2023/07/12 12:41:58;;;;;;;4.60;1.15;;;25.00;91.60;;;;;;4921744;29;20533;-85
2023/07/12 12:44:34;;;;;;;3.03;0.93;;;25.00;91.70;;;;;;4937057;29;20172;-85
2023/07/12 12:47:12;;;;;;;4.60;1.23;;;25.10;91.30;;;;;;4937175;29;20206;-85
2023/07/12 12:49:38;;;;;;;2.60;1.05;;;25.10;90.90;;;;;;4938788;29;20170;-85
2023/07/12 12:52:16;;;;;;;4.07;1.00;;;25.10;90.50;;;;;;4921576;29;20188;-85